Terminal Aerodrome Forecast
Issued by NWS Glasgow, MT

Home | Current Version | Previous Version | Text Only | Print | Product List | Glossary On
Versions: 1 2 3 4 5 6 7 8 9 10 11 12 13 14 15 16 17
000
FTUS45 KGGW 270520
TAFGGW
TAF
KGGW 270520Z 2706/2806 28005KT P6SM SCT110
     FM271600 30012KT P6SM BKN080
     FM280300 32006KT P6SM FEW090=

USA.gov is the U.S. government's official web portal to all federal, state and local government web resources and services.